sensor_id;sensor_type;location;lat;lon;timestamp;P1;durP1;ratioP1;P2;durP2;ratioP2
50769;SDS011;36740;48.698;11.472;2023-03-01T00:02:37;22.83;;;11.70;;
50769;SDS011;36740;48.698;11.472;2023-03-01T00:05:23;24.25;;;16.48;;
50769;SDS011;36740;48.698;11.472;2023-03-01T00:08:09;19.05;;;13.73;;
50769;SDS011;36740;48.698;11.472;2023-03-01T00:11:05;24.58;;;14.45;;
50769;SDS011;36740;48.698;11.472;2023-03-01T00:13:52;21.05;;;13.43;;
50769;SDS011;36740;48.698;11.472;2023-03-01T00:16:39;24.85;;;16.40;;
50769;SDS011;36740;48.698;11.472;2023-03-01T00:19:25;31.10;;;13.23;;
50769;SDS011;36740;48.698;11.472;2023-03-01T00:22:10;26.80;;;12.82;;
50769;SDS011;36740;48.698;11.472;2023-03-01T00:24:56;18.85;;;12.40;;
50769;SDS011;36740;48.698;11.472;2023-03-01T00:27:42;20.48;;;14.88;;
50769;SDS011;36740;48.698;11.472;2023-03-01T00:30:27;21.50;;;11.38;;
50769;SDS011;36740;48.698;11.472;2023-03-01T00:33:13;19.23;;;12.13;;
50769;SDS011;36740;48.698;11.472;2023-03-01T00:35:59;19.70;;;12.95;;
50769;SDS011;36740;48.698;11.472;2023-03-01T00:38:44;22.70;;;12.88;;
50769;SDS011;36740;48.698;11.472;2023-03-01T00:41:30;29.65;;;15.50;;
50769;SDS011;36740;48.698;11.472;2023-03-01T00:44:16;18.30;;;12.80;;
50769;SDS011;36740;48.698;11.472;2023-03-01T00:47:02;24.48;;;13.70;;
50769;SDS011;36740;48.698;11.472;2023-03-01T00:49:48;19.73;;;13.25;;
50769;SDS011;36740;48.698;11.472;2023-03-01T00:52:33;16.90;;;12.07;;
50769;SDS011;36740;48.698;11.472;2023-03-01T00:55:19;19.75;;;12.30;;
50769;SDS011;36740;48.698;11.472;2023-03-01T00:58:05;25.92;;;12.75;;
50769;SDS011;36740;48.698;11.472;2023-03-01T01:00:50;31.80;;;14.60;;
50769;SDS011;36740;48.698;11.472;2023-03-01T01:03:37;32.95;;;16.05;;
50769;SDS011;36740;48.698;11.472;2023-03-01T01:06:27;17.73;;;13.57;;
50769;SDS011;36740;48.698;11.472;2023-03-01T01:09:14;20.23;;;11.53;;
50769;SDS011;36740;48.698;11.472;2023-03-01T01:12:02;18.40;;;13.32;;
50769;SDS011;36740;48.698;11.472;2023-03-01T01:14:49;20.00;;;14.60;;
50769;SDS011;36740;48.698;11.472;2023-03-01T01:17:34;19.05;;;13.45;;
50769;SDS011;36740;48.698;11.472;2023-03-01T01:20:21;20.08;;;11.23;;
50769;SDS011;36740;48.698;11.472;2023-03-01T01:23:07;18.98;;;9.70;;
50769;SDS011;36740;48.698;11.472;2023-03-01T01:25:53;20.77;;;15.32;;
50769;SDS011;36740;48.698;11.472;2023-03-01T01:28:38;22.73;;;14.50;;
50769;SDS011;36740;48.698;11.472;2023-03-01T01:31:24;19.27;;;13.68;;
50769;SDS011;36740;48.698;11.472;2023-03-01T01:34:14;18.65;;;11.95;;
50769;SDS011;36740;48.698;11.472;2023-03-01T01:37:00;23.08;;;13.68;;
50769;SDS011;36740;48.698;11.472;2023-03-01T01:39:48;25.58;;;14.38;;
50769;SDS011;36740;48.698;11.472;2023-03-01T01:42:33;23.00;;;12.65;;
50769;SDS011;36740;48.698;11.472;2023-03-01T01:45:27;17.88;;;13.23;;
50769;SDS011;36740;48.698;11.472;2023-03-01T01:48:19;22.00;;;12.52;;
50769;SDS011;36740;48.698;11.472;2023-03-01T01:51:06;23.25;;;13.25;;
50769;SDS011;36740;48.698;11.472;2023-03-01T01:53:53;21.63;;;13.60;;
50769;SDS011;36740;48.698;11.472;2023-03-01T01:56:40;20.02;;;12.65;;
50769;SDS011;36740;48.698;11.472;2023-03-01T01:59:27;18.55;;;15.77;;
50769;SDS011;36740;48.698;11.472;2023-03-01T02:02:13;16.20;;;12.50;;
50769;SDS011;36740;48.698;11.472;2023-03-01T02:05:16;23.10;;;13.10;;
50769;SDS011;36740;48.698;11.472;2023-03-01T02:08:04;17.73;;;13.20;;
50769;SDS011;36740;48.698;11.472;2023-03-01T02:10:50;21.48;;;13.80;;
50769;SDS011;36740;48.698;11.472;2023-03-01T02:13:37;19.17;;;11.15;;
50769;SDS011;36740;48.698;11.472;2023-03-01T02:16:23;20.60;;;12.98;;
50769;SDS011;36740;48.698;11.472;2023-03-01T02:19:09;17.58;;;12.77;;
50769;SDS011;36740;48.698;11.472;2023-03-01T02:22:07;24.10;;;13.10;;
50769;SDS011;36740;48.698;11.472;2023-03-01T02:31:02;20.08;;;14.35;;
50769;SDS011;36740;48.698;11.472;2023-03-01T02:34:12;22.15;;;14.10;;
50769;SDS011;36740;48.698;11.472;2023-03-01T02:37:02;22.38;;;14.50;;
50769;SDS011;36740;48.698;11.472;2023-03-01T02:39:59;23.52;;;12.50;;
50769;SDS011;36740;48.698;11.472;2023-03-01T02:42:51;27.65;;;12.55;;
50769;SDS011;36740;48.698;11.472;2023-03-01T02:45:51;24.83;;;13.02;;
50769;SDS011;36740;48.698;11.472;2023-03-01T02:48:42;21.55;;;11.93;;
50769;SDS011;36740;48.698;11.472;2023-03-01T02:57:16;28.10;;;13.18;;
50769;SDS011;36740;48.698;11.472;2023-03-01T03:00:11;18.05;;;10.05;;
50769;SDS011;36740;48.698;11.472;2023-03-01T03:03:04;20.02;;;10.73;;
50769;SDS011;36740;48.698;11.472;2023-03-01T03:05:50;24.98;;;13.15;;
50769;SDS011;36740;48.698;11.472;2023-03-01T03:08:35;20.13;;;15.38;;
50769;SDS011;36740;48.698;11.472;2023-03-01T03:11:21;22.42;;;11.32;;
50769;SDS011;36740;48.698;11.472;2023-03-01T03:14:07;23.73;;;14.90;;
50769;SDS011;36740;48.698;11.472;2023-03-01T03:16:57;19.40;;;12.73;;
50769;SDS011;36740;48.698;11.472;2023-03-01T03:19:43;22.48;;;13.55;;
50769;SDS011;36740;48.698;11.472;2023-03-01T03:22:31;21.75;;;13.32;;
50769;SDS011;36740;48.698;11.472;2023-03-01T03:25:17;27.75;;;13.10;;
50769;SDS011;36740;48.698;11.472;2023-03-01T03:28:03;20.30;;;13.82;;
50769;SDS011;36740;48.698;11.472;2023-03-01T03:30:54;24.90;;;17.40;;
50769;SDS011;36740;48.698;11.472;2023-03-01T03:33:40;30.60;;;16.65;;
50769;SDS011;36740;48.698;11.472;2023-03-01T03:36:26;22.02;;;15.52;;
50769;SDS011;36740;48.698;11.472;2023-03-01T03:39:11;28.20;;;15.45;;
50769;SDS011;36740;48.698;11.472;2023-03-01T03:41:57;27.67;;;16.58;;
50769;SDS011;36740;48.698;11.472;2023-03-01T03:44:42;21.08;;;15.82;;
50769;SDS011;36740;48.698;11.472;2023-03-01T03:47:28;28.77;;;14.45;;
50769;SDS011;36740;48.698;11.472;2023-03-01T03:50:14;19.85;;;10.75;;
50769;SDS011;36740;48.698;11.472;2023-03-01T03:53:01;27.85;;;14.43;;
50769;SDS011;36740;48.698;11.472;2023-03-01T03:55:47;33.28;;;15.18;;
50769;SDS011;36740;48.698;11.472;2023-03-01T03:58:34;18.50;;;12.55;;
50769;SDS011;36740;48.698;11.472;2023-03-01T04:01:20;24.02;;;15.38;;
50769;SDS011;36740;48.698;11.472;2023-03-01T04:04:05;31.40;;;13.85;;
50769;SDS011;36740;48.698;11.472;2023-03-01T04:06:53;18.92;;;13.15;;
50769;SDS011;36740;48.698;11.472;2023-03-01T04:09:39;23.77;;;13.73;;
50769;SDS011;36740;48.698;11.472;2023-03-01T04:12:24;25.00;;;14.18;;
50769;SDS011;36740;48.698;11.472;2023-03-01T04:15:11;22.10;;;12.55;;
50769;SDS011;36740;48.698;11.472;2023-03-01T04:17:59;26.85;;;15.35;;
50769;SDS011;36740;48.698;11.472;2023-03-01T04:20:45;22.23;;;12.77;;
50769;SDS011;36740;48.698;11.472;2023-03-01T04:23:31;19.23;;;14.27;;
50769;SDS011;36740;48.698;11.472;2023-03-01T04:26:17;17.30;;;11.27;;
50769;SDS011;36740;48.698;11.472;2023-03-01T04:29:02;21.90;;;13.82;;
50769;SDS011;36740;48.698;11.472;2023-03-01T04:31:48;21.98;;;12.57;;
50769;SDS011;36740;48.698;11.472;2023-03-01T04:34:34;20.25;;;13.60;;
50769;SDS011;36740;48.698;11.472;2023-03-01T04:37:20;22.05;;;14.02;;
50769;SDS011;36740;48.698;11.472;2023-03-01T04:40:06;23.27;;;15.73;;
50769;SDS011;36740;48.698;11.472;2023-03-01T04:43:01;25.80;;;14.82;;
50769;SDS011;36740;48.698;11.472;2023-03-01T04:45:48;26.15;;;14.50;;
50769;SDS011;36740;48.698;11.472;2023-03-01T04:48:37;22.10;;;14.48;;
50769;SDS011;36740;48.698;11.472;2023-03-01T04:51:23;24.67;;;12.15;;
50769;SDS011;36740;48.698;11.472;2023-03-01T04:54:09;20.08;;;12.93;;
50769;SDS011;36740;48.698;11.472;2023-03-01T04:56:55;25.83;;;14.73;;
50769;SDS011;36740;48.698;11.472;2023-03-01T04:59:41;18.65;;;12.95;;
50769;SDS011;36740;48.698;11.472;2023-03-01T05:02:26;29.42;;;16.92;;
50769;SDS011;36740;48.698;11.472;2023-03-01T05:05:12;21.73;;;11.43;;
50769;SDS011;36740;48.698;11.472;2023-03-01T05:08:00;20.52;;;13.23;;
50769;SDS011;36740;48.698;11.472;2023-03-01T05:10:50;15.90;;;11.57;;
50769;SDS011;36740;48.698;11.472;2023-03-01T05:13:36;17.13;;;13.27;;
50769;SDS011;36740;48.698;11.472;2023-03-01T05:16:22;30.73;;;17.15;;
50769;SDS011;36740;48.698;11.472;2023-03-01T05:19:08;19.98;;;13.07;;
50769;SDS011;36740;48.698;11.472;2023-03-01T05:22:00;20.77;;;14.13;;
50769;SDS011;36740;48.698;11.472;2023-03-01T05:24:51;24.92;;;15.90;;
50769;SDS011;36740;48.698;11.472;2023-03-01T05:27:39;25.83;;;14.60;;
50769;SDS011;36740;48.698;11.472;2023-03-01T05:30:25;23.10;;;13.35;;
50769;SDS011;36740;48.698;11.472;2023-03-01T05:33:10;24.60;;;15.88;;
50769;SDS011;36740;48.698;11.472;2023-03-01T05:35:59;23.88;;;15.73;;
50769;SDS011;36740;48.698;11.472;2023-03-01T05:38:45;17.30;;;11.23;;
50769;SDS011;36740;48.698;11.472;2023-03-01T05:41:30;29.48;;;14.77;;
50769;SDS011;36740;48.698;11.472;2023-03-01T05:44:16;21.80;;;13.90;;
50769;SDS011;36740;48.698;11.472;2023-03-01T05:47:02;27.33;;;16.20;;
50769;SDS011;36740;48.698;11.472;2023-03-01T05:49:48;25.35;;;14.85;;
50769;SDS011;36740;48.698;11.472;2023-03-01T05:52:35;22.05;;;15.95;;
50769;SDS011;36740;48.698;11.472;2023-03-01T05:55:21;28.55;;;16.48;;
50769;SDS011;36740;48.698;11.472;2023-03-01T05:58:07;20.58;;;14.68;;
50769;SDS011;36740;48.698;11.472;2023-03-01T06:00:54;24.73;;;13.40;;
50769;SDS011;36740;48.698;11.472;2023-03-01T06:03:41;21.48;;;15.00;;
50769;SDS011;36740;48.698;11.472;2023-03-01T06:06:27;26.42;;;15.23;;
50769;SDS011;36740;48.698;11.472;2023-03-01T06:09:13;28.27;;;13.75;;
50769;SDS011;36740;48.698;11.472;2023-03-01T06:11:59;20.25;;;16.30;;
50769;SDS011;36740;48.698;11.472;2023-03-01T06:14:45;24.42;;;16.42;;
50769;SDS011;36740;48.698;11.472;2023-03-01T06:17:33;27.08;;;15.73;;
50769;SDS011;36740;48.698;11.472;2023-03-01T06:20:23;31.27;;;19.23;;
50769;SDS011;36740;48.698;11.472;2023-03-01T06:23:10;21.05;;;13.40;;
50769;SDS011;36740;48.698;11.472;2023-03-01T06:25:56;29.00;;;17.33;;
50769;SDS011;36740;48.698;11.472;2023-03-01T06:28:41;27.25;;;13.82;;
50769;SDS011;36740;48.698;11.472;2023-03-01T06:31:27;25.60;;;17.27;;
50769;SDS011;36740;48.698;11.472;2023-03-01T06:34:12;36.65;;;17.42;;
50769;SDS011;36740;48.698;11.472;2023-03-01T06:36:58;31.92;;;18.10;;
50769;SDS011;36740;48.698;11.472;2023-03-01T06:39:44;25.30;;;15.95;;
50769;SDS011;36740;48.698;11.472;2023-03-01T06:42:30;22.05;;;18.10;;
50769;SDS011;36740;48.698;11.472;2023-03-01T06:45:15;20.05;;;13.50;;
50769;SDS011;36740;48.698;11.472;2023-03-01T06:48:04;30.80;;;15.38;;
50769;SDS011;36740;48.698;11.472;2023-03-01T06:50:51;18.92;;;13.57;;
50769;SDS011;36740;48.698;11.472;2023-03-01T06:53:36;21.05;;;12.90;;
50769;SDS011;36740;48.698;11.472;2023-03-01T06:56:22;18.10;;;13.63;;
50769;SDS011;36740;48.698;11.472;2023-03-01T06:59:07;24.40;;;14.38;;
50769;SDS011;36740;48.698;11.472;2023-03-01T07:01:53;22.38;;;13.13;;
50769;SDS011;36740;48.698;11.472;2023-03-01T07:04:39;25.42;;;14.90;;
50769;SDS011;36740;48.698;11.472;2023-03-01T07:07:24;24.65;;;15.32;;
50769;SDS011;36740;48.698;11.472;2023-03-01T07:10:10;26.55;;;13.93;;
50769;SDS011;36740;48.698;11.472;2023-03-01T07:12:56;18.95;;;11.35;;
50769;SDS011;36740;48.698;11.472;2023-03-01T07:15:42;24.75;;;13.45;;
50769;SDS011;36740;48.698;11.472;2023-03-01T07:18:28;19.05;;;14.13;;
50769;SDS011;36740;48.698;11.472;2023-03-01T07:21:14;20.45;;;12.45;;
50769;SDS011;36740;48.698;11.472;2023-03-01T07:24:00;22.13;;;13.95;;
50769;SDS011;36740;48.698;11.472;2023-03-01T07:26:48;17.80;;;12.10;;
50769;SDS011;36740;48.698;11.472;2023-03-01T07:29:33;25.20;;;14.85;;
50769;SDS011;36740;48.698;11.472;2023-03-01T07:32:21;26.02;;;14.45;;
50769;SDS011;36740;48.698;11.472;2023-03-01T07:35:07;34.58;;;16.33;;
50769;SDS011;36740;48.698;11.472;2023-03-01T07:37:53;20.95;;;12.52;;
50769;SDS011;36740;48.698;11.472;2023-03-01T07:40:38;25.08;;;14.95;;
50769;SDS011;36740;48.698;11.472;2023-03-01T07:43:24;26.08;;;14.07;;
50769;SDS011;36740;48.698;11.472;2023-03-01T07:46:10;28.83;;;15.10;;
50769;SDS011;36740;48.698;11.472;2023-03-01T07:48:55;17.90;;;12.60;;
50769;SDS011;36740;48.698;11.472;2023-03-01T07:51:43;20.33;;;12.43;;
50769;SDS011;36740;48.698;11.472;2023-03-01T07:54:28;21.50;;;14.65;;
50769;SDS011;36740;48.698;11.472;2023-03-01T07:57:14;28.13;;;13.77;;
50769;SDS011;36740;48.698;11.472;2023-03-01T08:00:00;20.75;;;14.50;;
50769;SDS011;36740;48.698;11.472;2023-03-01T08:02:45;28.48;;;16.67;;
50769;SDS011;36740;48.698;11.472;2023-03-01T08:05:31;22.17;;;14.80;;
50769;SDS011;36740;48.698;11.472;2023-03-01T08:08:17;20.10;;;11.38;;
50769;SDS011;36740;48.698;11.472;2023-03-01T08:11:03;21.95;;;15.18;;
50769;SDS011;36740;48.698;11.472;2023-03-01T08:13:49;30.90;;;14.25;;
50769;SDS011;36740;48.698;11.472;2023-03-01T08:16:35;25.70;;;14.52;;
50769;SDS011;36740;48.698;11.472;2023-03-01T08:19:21;25.92;;;14.73;;
50769;SDS011;36740;48.698;11.472;2023-03-01T08:22:06;22.10;;;15.93;;
50769;SDS011;36740;48.698;11.472;2023-03-01T08:24:52;30.00;;;15.18;;
50769;SDS011;36740;48.698;11.472;2023-03-01T08:27:37;21.58;;;13.95;;
50769;SDS011;36740;48.698;11.472;2023-03-01T08:30:23;28.20;;;15.93;;
50769;SDS011;36740;48.698;11.472;2023-03-01T08:33:09;28.38;;;15.55;;
50769;SDS011;36740;48.698;11.472;2023-03-01T08:36:04;18.60;;;13.25;;
50769;SDS011;36740;48.698;11.472;2023-03-01T08:38:52;24.55;;;12.73;;
50769;SDS011;36740;48.698;11.472;2023-03-01T08:41:38;21.42;;;14.30;;
50769;SDS011;36740;48.698;11.472;2023-03-01T08:44:23;22.17;;;13.40;;
50769;SDS011;36740;48.698;11.472;2023-03-01T08:47:09;18.65;;;13.25;;
50769;SDS011;36740;48.698;11.472;2023-03-01T08:49:55;27.65;;;13.93;;
50769;SDS011;36740;48.698;11.472;2023-03-01T08:52:41;23.35;;;11.85;;
50769;SDS011;36740;48.698;11.472;2023-03-01T08:55:26;26.58;;;12.15;;
50769;SDS011;36740;48.698;11.472;2023-03-01T08:58:12;25.30;;;13.68;;
50769;SDS011;36740;48.698;11.472;2023-03-01T09:00:58;21.85;;;12.27;;
50769;SDS011;36740;48.698;11.472;2023-03-01T09:03:45;21.95;;;12.88;;
50769;SDS011;36740;48.698;11.472;2023-03-01T09:06:31;19.42;;;13.15;;
50769;SDS011;36740;48.698;11.472;2023-03-01T09:09:18;19.42;;;11.65;;
50769;SDS011;36740;48.698;11.472;2023-03-01T09:12:04;22.10;;;13.60;;
50769;SDS011;36740;48.698;11.472;2023-03-01T09:14:49;21.77;;;11.07;;
50769;SDS011;36740;48.698;11.472;2023-03-01T09:17:35;15.25;;;11.43;;
50769;SDS011;36740;48.698;11.472;2023-03-01T09:20:20;18.15;;;11.45;;
50769;SDS011;36740;48.698;11.472;2023-03-01T09:23:06;22.40;;;10.73;;
50769;SDS011;36740;48.698;11.472;2023-03-01T09:25:52;17.05;;;11.10;;
50769;SDS011;36740;48.698;11.472;2023-03-01T09:28:38;23.00;;;12.43;;
50769;SDS011;36740;48.698;11.472;2023-03-01T09:31:23;18.75;;;11.98;;
50769;SDS011;36740;48.698;11.472;2023-03-01T09:34:09;15.68;;;10.45;;
50769;SDS011;36740;48.698;11.472;2023-03-01T09:36:56;23.52;;;11.02;;
50769;SDS011;36740;48.698;11.472;2023-03-01T09:39:42;20.63;;;13.60;;
50769;SDS011;36740;48.698;11.472;2023-03-01T09:42:28;26.25;;;11.68;;
50769;SDS011;36740;48.698;11.472;2023-03-01T09:45:27;18.98;;;11.07;;
50769;SDS011;36740;48.698;11.472;2023-03-01T09:48:18;14.32;;;9.82;;
50769;SDS011;36740;48.698;11.472;2023-03-01T09:51:05;18.83;;;10.52;;
50769;SDS011;36740;48.698;11.472;2023-03-01T09:53:52;20.02;;;10.38;;
50769;SDS011;36740;48.698;11.472;2023-03-01T09:56:40;21.48;;;12.48;;
50769;SDS011;36740;48.698;11.472;2023-03-01T09:59:28;21.95;;;11.52;;
50769;SDS011;36740;48.698;11.472;2023-03-01T10:05:27;23.42;;;12.85;;
50769;SDS011;36740;48.698;11.472;2023-03-01T10:11:45;24.10;;;12.40;;
50769;SDS011;36740;48.698;11.472;2023-03-01T10:20:18;17.75;;;11.27;;
50769;SDS011;36740;48.698;11.472;2023-03-01T10:23:04;16.23;;;10.40;;
50769;SDS011;36740;48.698;11.472;2023-03-01T10:28:49;19.80;;;11.23;;
50769;SDS011;36740;48.698;11.472;2023-03-01T10:31:40;21.38;;;11.95;;
50769;SDS011;36740;48.698;11.472;2023-03-01T10:34:29;14.88;;;10.63;;
50769;SDS011;36740;48.698;11.472;2023-03-01T10:37:16;20.83;;;11.23;;
50769;SDS011;36740;48.698;11.472;2023-03-01T10:40:05;13.25;;;8.98;;
50769;SDS011;36740;48.698;11.472;2023-03-01T10:42:54;18.10;;;10.35;;
50769;SDS011;36740;48.698;11.472;2023-03-01T10:45:42;15.35;;;9.82;;
50769;SDS011;36740;48.698;11.472;2023-03-01T10:48:28;16.30;;;10.43;;
50769;SDS011;36740;48.698;11.472;2023-03-01T10:51:17;18.00;;;10.75;;
50769;SDS011;36740;48.698;11.472;2023-03-01T10:54:03;17.05;;;10.30;;
50769;SDS011;36740;48.698;11.472;2023-03-01T10:56:53;19.23;;;10.60;;
50769;SDS011;36740;48.698;11.472;2023-03-01T10:59:39;19.23;;;10.00;;
50769;SDS011;36740;48.698;11.472;2023-03-01T11:02:28;19.30;;;10.40;;
50769;SDS011;36740;48.698;11.472;2023-03-01T11:08:04;13.25;;;8.35;;
50769;SDS011;36740;48.698;11.472;2023-03-01T11:10:50;18.85;;;10.43;;
50769;SDS011;36740;48.698;11.472;2023-03-01T11:13:36;16.77;;;8.80;;
50769;SDS011;36740;48.698;11.472;2023-03-01T11:22:19;19.23;;;9.65;;
50769;SDS011;36740;48.698;11.472;2023-03-01T11:25:02;20.75;;;9.82;;
50769;SDS011;36740;48.698;11.472;2023-03-01T11:27:48;19.13;;;10.75;;
50769;SDS011;36740;48.698;11.472;2023-03-01T11:30:43;19.65;;;10.85;;
50769;SDS011;36740;48.698;11.472;2023-03-01T11:33:34;14.50;;;10.95;;
50769;SDS011;36740;48.698;11.472;2023-03-01T11:39:25;13.55;;;9.13;;
50769;SDS011;36740;48.698;11.472;2023-03-01T11:42:14;15.82;;;8.52;;
50769;SDS011;36740;48.698;11.472;2023-03-01T11:45:02;21.58;;;10.48;;
50769;SDS011;36740;48.698;11.472;2023-03-01T11:48:07;11.50;;;7.80;;
50769;SDS011;36740;48.698;11.472;2023-03-01T11:51:00;16.00;;;10.35;;
50769;SDS011;36740;48.698;11.472;2023-03-01T11:53:55;16.48;;;10.65;;
50769;SDS011;36740;48.698;11.472;2023-03-01T11:56:46;15.73;;;9.77;;
50769;SDS011;36740;48.698;11.472;2023-03-01T12:00:17;14.97;;;9.53;;
50769;SDS011;36740;48.698;11.472;2023-03-01T12:20:26;14.07;;;7.63;;
50769;SDS011;36740;48.698;11.472;2023-03-01T12:26:25;17.55;;;10.75;;
50769;SDS011;36740;48.698;11.472;2023-03-01T12:32:08;16.33;;;8.63;;
50769;SDS011;36740;48.698;11.472;2023-03-01T12:38:16;13.93;;;8.75;;
50769;SDS011;36740;48.698;11.472;2023-03-01T12:50:00;14.40;;;8.48;;
50769;SDS011;36740;48.698;11.472;2023-03-01T12:55:36;22.08;;;7.93;;
50769;SDS011;36740;48.698;11.472;2023-03-01T13:06:54;17.50;;;9.23;;
50769;SDS011;36740;48.698;11.472;2023-03-01T13:09:48;23.98;;;11.85;;
50769;SDS011;36740;48.698;11.472;2023-03-01T13:13:35;17.25;;;11.68;;
50769;SDS011;36740;48.698;11.472;2023-03-01T13:15:49;17.52;;;8.57;;
50769;SDS011;36740;48.698;11.472;2023-03-01T13:18:36;14.18;;;9.15;;
50769;SDS011;36740;48.698;11.472;2023-03-01T13:21:29;15.93;;;8.05;;
50769;SDS011;36740;48.698;11.472;2023-03-01T13:24:28;15.68;;;9.30;;
50769;SDS011;36740;48.698;11.472;2023-03-01T13:30:03;14.77;;;8.43;;
50769;SDS011;36740;48.698;11.472;2023-03-01T13:32:51;15.80;;;9.48;;
50769;SDS011;36740;48.698;11.472;2023-03-01T13:42:02;15.32;;;7.70;;
50769;SDS011;36740;48.698;11.472;2023-03-01T13:44:42;16.02;;;8.82;;
50769;SDS011;36740;48.698;11.472;2023-03-01T13:47:28;15.77;;;9.35;;
50769;SDS011;36740;48.698;11.472;2023-03-01T13:50:33;14.35;;;9.63;;
50769;SDS011;36740;48.698;11.472;2023-03-01T13:53:23;17.75;;;9.05;;
50769;SDS011;36740;48.698;11.472;2023-03-01T13:56:55;16.98;;;8.02;;
50769;SDS011;36740;48.698;11.472;2023-03-01T13:59:20;14.20;;;8.20;;
50769;SDS011;36740;48.698;11.472;2023-03-01T14:02:11;26.60;;;9.23;;
50769;SDS011;36740;48.698;11.472;2023-03-01T14:04:57;12.18;;;8.02;;
50769;SDS011;36740;48.698;11.472;2023-03-01T14:07:43;13.55;;;8.18;;
50769;SDS011;36740;48.698;11.472;2023-03-01T14:10:39;11.98;;;7.53;;
50769;SDS011;36740;48.698;11.472;2023-03-01T14:13:32;18.65;;;7.72;;
50769;SDS011;36740;48.698;11.472;2023-03-01T14:16:36;15.20;;;9.70;;
50769;SDS011;36740;48.698;11.472;2023-03-01T14:19:25;14.05;;;8.68;;
50769;SDS011;36740;48.698;11.472;2023-03-01T14:22:27;15.10;;;10.20;;
50769;SDS011;36740;48.698;11.472;2023-03-01T14:25:19;14.43;;;9.80;;
50769;SDS011;36740;48.698;11.472;2023-03-01T14:31:37;13.70;;;8.38;;
50769;SDS011;36740;48.698;11.472;2023-03-01T14:34:23;13.48;;;8.95;;
50769;SDS011;36740;48.698;11.472;2023-03-01T14:37:11;13.68;;;8.80;;
50769;SDS011;36740;48.698;11.472;2023-03-01T14:40:03;13.90;;;9.60;;
50769;SDS011;36740;48.698;11.472;2023-03-01T14:42:49;16.20;;;8.32;;
50769;SDS011;36740;48.698;11.472;2023-03-01T14:45:36;16.45;;;8.82;;
50769;SDS011;36740;48.698;11.472;2023-03-01T14:48:21;13.25;;;9.57;;
50769;SDS011;36740;48.698;11.472;2023-03-01T14:51:08;16.42;;;8.27;;
50769;SDS011;36740;48.698;11.472;2023-03-01T14:53:55;15.02;;;8.95;;
50769;SDS011;36740;48.698;11.472;2023-03-01T14:56:44;19.70;;;9.52;;
50769;SDS011;36740;48.698;11.472;2023-03-01T14:59:32;20.77;;;10.70;;
50769;SDS011;36740;48.698;11.472;2023-03-01T15:02:19;17.83;;;12.20;;
50769;SDS011;36740;48.698;11.472;2023-03-01T15:05:06;24.33;;;11.95;;
50769;SDS011;36740;48.698;11.472;2023-03-01T15:07:53;20.65;;;12.32;;
50769;SDS011;36740;48.698;11.472;2023-03-01T15:10:39;21.48;;;13.02;;
50769;SDS011;36740;48.698;11.472;2023-03-01T15:13:29;19.70;;;10.07;;
50769;SDS011;36740;48.698;11.472;2023-03-01T15:16:19;18.75;;;11.35;;
50769;SDS011;36740;48.698;11.472;2023-03-01T15:19:06;15.95;;;9.95;;
50769;SDS011;36740;48.698;11.472;2023-03-01T15:21:52;18.73;;;10.63;;
50769;SDS011;36740;48.698;11.472;2023-03-01T15:24:38;17.90;;;12.23;;
50769;SDS011;36740;48.698;11.472;2023-03-01T15:27:24;25.52;;;13.13;;
50769;SDS011;36740;48.698;11.472;2023-03-01T15:30:14;16.33;;;10.27;;
50769;SDS011;36740;48.698;11.472;2023-03-01T15:33:45;17.65;;;11.07;;
50769;SDS011;36740;48.698;11.472;2023-03-01T15:42:11;12.70;;;8.93;;
50769;SDS011;36740;48.698;11.472;2023-03-01T15:45:10;17.52;;;9.52;;
50769;SDS011;36740;48.698;11.472;2023-03-01T15:47:56;17.15;;;9.07;;
50769;SDS011;36740;48.698;11.472;2023-03-01T15:50:43;15.02;;;10.10;;
50769;SDS011;36740;48.698;11.472;2023-03-01T15:53:29;14.35;;;9.10;;
50769;SDS011;36740;48.698;11.472;2023-03-01T15:56:15;14.75;;;10.43;;
50769;SDS011;36740;48.698;11.472;2023-03-01T15:59:01;22.92;;;11.32;;
50769;SDS011;36740;48.698;11.472;2023-03-01T16:01:47;16.23;;;10.68;;
50769;SDS011;36740;48.698;11.472;2023-03-01T16:04:33;17.02;;;8.85;;
50769;SDS011;36740;48.698;11.472;2023-03-01T16:07:19;16.33;;;10.43;;
50769;SDS011;36740;48.698;11.472;2023-03-01T16:10:05;14.85;;;9.48;;
50769;SDS011;36740;48.698;11.472;2023-03-01T16:12:50;14.88;;;9.10;;
50769;SDS011;36740;48.698;11.472;2023-03-01T16:15:37;23.10;;;10.65;;
50769;SDS011;36740;48.698;11.472;2023-03-01T16:18:24;18.50;;;10.68;;
50769;SDS011;36740;48.698;11.472;2023-03-01T16:21:13;22.23;;;11.57;;
50769;SDS011;36740;48.698;11.472;2023-03-01T16:24:01;17.48;;;11.27;;
50769;SDS011;36740;48.698;11.472;2023-03-01T16:26:47;12.93;;;11.02;;
50769;SDS011;36740;48.698;11.472;2023-03-01T16:29:32;18.30;;;10.43;;
50769;SDS011;36740;48.698;11.472;2023-03-01T16:32:18;16.23;;;10.10;;
50769;SDS011;36740;48.698;11.472;2023-03-01T16:35:04;23.48;;;13.43;;
50769;SDS011;36740;48.698;11.472;2023-03-01T16:37:49;20.77;;;11.50;;
50769;SDS011;36740;48.698;11.472;2023-03-01T16:40:37;20.25;;;11.45;;
50769;SDS011;36740;48.698;11.472;2023-03-01T16:43:23;17.25;;;12.60;;
50769;SDS011;36740;48.698;11.472;2023-03-01T16:46:13;16.85;;;11.23;;
50769;SDS011;36740;48.698;11.472;2023-03-01T16:48:59;21.35;;;12.40;;
50769;SDS011;36740;48.698;11.472;2023-03-01T16:51:45;18.85;;;12.25;;
50769;SDS011;36740;48.698;11.472;2023-03-01T16:54:30;23.35;;;13.55;;
50769;SDS011;36740;48.698;11.472;2023-03-01T16:57:16;18.75;;;11.80;;
50769;SDS011;36740;48.698;11.472;2023-03-01T17:00:02;39.50;;;13.88;;
50769;SDS011;36740;48.698;11.472;2023-03-01T17:02:50;20.10;;;11.60;;
50769;SDS011;36740;48.698;11.472;2023-03-01T17:05:39;24.27;;;13.93;;
50769;SDS011;36740;48.698;11.472;2023-03-01T17:08:25;21.10;;;10.40;;
50769;SDS011;36740;48.698;11.472;2023-03-01T17:11:12;18.60;;;10.30;;
50769;SDS011;36740;48.698;11.472;2023-03-01T17:13:57;23.73;;;13.60;;
50769;SDS011;36740;48.698;11.472;2023-03-01T17:16:43;23.60;;;12.32;;
50769;SDS011;36740;48.698;11.472;2023-03-01T17:19:30;23.58;;;17.60;;
50769;SDS011;36740;48.698;11.472;2023-03-01T17:22:17;22.27;;;13.43;;
50769;SDS011;36740;48.698;11.472;2023-03-01T17:25:03;29.77;;;14.43;;
50769;SDS011;36740;48.698;11.472;2023-03-01T17:27:49;22.75;;;15.02;;
50769;SDS011;36740;48.698;11.472;2023-03-01T17:30:35;24.35;;;12.48;;
50769;SDS011;36740;48.698;11.472;2023-03-01T17:33:21;36.15;;;14.13;;
50769;SDS011;36740;48.698;11.472;2023-03-01T17:36:06;21.33;;;12.80;;
50769;SDS011;36740;48.698;11.472;2023-03-01T17:38:52;21.73;;;12.90;;
50769;SDS011;36740;48.698;11.472;2023-03-01T17:41:38;23.38;;;13.52;;
50769;SDS011;36740;48.698;11.472;2023-03-01T17:44:24;20.92;;;14.77;;
50769;SDS011;36740;48.698;11.472;2023-03-01T17:47:09;24.00;;;11.93;;
50769;SDS011;36740;48.698;11.472;2023-03-01T17:49:56;20.98;;;13.40;;
50769;SDS011;36740;48.698;11.472;2023-03-01T17:52:42;26.92;;;14.27;;
50769;SDS011;36740;48.698;11.472;2023-03-01T17:55:27;30.27;;;13.50;;